sensor_id;sensor_type;location;lat;lon;timestamp;P1;durP1;ratioP1;P2;durP2;ratioP2
48875;SDS011;34689;51.644;5.618;2023-04-07T00:01:10;7.85;;;4.03;;
48875;SDS011;34689;51.644;5.618;2023-04-07T00:03:36;5.30;;;3.47;;
48875;SDS011;34689;51.644;5.618;2023-04-07T00:06:04;4.63;;;3.05;;
48875;SDS011;34689;51.644;5.618;2023-04-07T00:08:33;8.55;;;4.50;;
48875;SDS011;34689;51.644;5.618;2023-04-07T00:10:58;7.80;;;4.13;;
48875;SDS011;34689;51.644;5.618;2023-04-07T00:13:24;6.43;;;3.30;;
48875;SDS011;34689;51.644;5.618;2023-04-07T00:15:51;4.50;;;2.85;;
48875;SDS011;34689;51.644;5.618;2023-04-07T00:18:16;6.57;;;4.05;;
48875;SDS011;34689;51.644;5.618;2023-04-07T00:20:42;7.00;;;3.30;;
48875;SDS011;34689;51.644;5.618;2023-04-07T00:23:08;7.03;;;3.60;;
48875;SDS011;34689;51.644;5.618;2023-04-07T00:25:34;7.45;;;3.70;;
48875;SDS011;34689;51.644;5.618;2023-04-07T00:27:59;6.78;;;3.95;;
48875;SDS011;34689;51.644;5.618;2023-04-07T00:30:25;6.57;;;4.15;;
48875;SDS011;34689;51.644;5.618;2023-04-07T00:32:51;6.20;;;4.18;;
48875;SDS011;34689;51.644;5.618;2023-04-07T00:35:17;4.28;;;3.00;;
48875;SDS011;34689;51.644;5.618;2023-04-07T00:37:42;7.90;;;3.92;;
48875;SDS011;34689;51.644;5.618;2023-04-07T00:40:08;6.78;;;3.65;;
48875;SDS011;34689;51.644;5.618;2023-04-07T00:42:37;4.68;;;2.85;;
48875;SDS011;34689;51.644;5.618;2023-04-07T00:45:03;4.82;;;2.95;;
48875;SDS011;34689;51.644;5.618;2023-04-07T00:47:29;3.65;;;2.50;;
48875;SDS011;34689;51.644;5.618;2023-04-07T00:49:54;4.35;;;3.20;;
48875;SDS011;34689;51.644;5.618;2023-04-07T00:52:20;6.82;;;3.63;;
48875;SDS011;34689;51.644;5.618;2023-04-07T00:54:53;5.95;;;3.45;;
48875;SDS011;34689;51.644;5.618;2023-04-07T00:57:21;6.63;;;3.38;;
48875;SDS011;34689;51.644;5.618;2023-04-07T00:59:48;6.10;;;3.80;;
48875;SDS011;34689;51.644;5.618;2023-04-07T01:05:09;5.68;;;2.95;;
48875;SDS011;34689;51.644;5.618;2023-04-07T01:11:11;7.82;;;4.00;;
48875;SDS011;34689;51.644;5.618;2023-04-07T01:13:31;8.02;;;2.88;;
48875;SDS011;34689;51.644;5.618;2023-04-07T01:16:03;4.55;;;2.72;;
48875;SDS011;34689;51.644;5.618;2023-04-07T01:18:32;4.65;;;2.72;;
48875;SDS011;34689;51.644;5.618;2023-04-07T01:21:05;6.30;;;2.30;;
48875;SDS011;34689;51.644;5.618;2023-04-07T01:31:11;5.28;;;2.17;;
48875;SDS011;34689;51.644;5.618;2023-04-07T01:33:38;4.93;;;1.83;;
48875;SDS011;34689;51.644;5.618;2023-04-07T01:36:06;3.88;;;2.22;;
48875;SDS011;34689;51.644;5.618;2023-04-07T01:38:33;4.63;;;2.42;;
48875;SDS011;34689;51.644;5.618;2023-04-07T01:40:59;4.30;;;2.65;;
48875;SDS011;34689;51.644;5.618;2023-04-07T01:43:26;4.55;;;1.80;;
48875;SDS011;34689;51.644;5.618;2023-04-07T01:45:54;5.32;;;2.10;;
48875;SDS011;34689;51.644;5.618;2023-04-07T01:48:21;3.42;;;1.75;;
48875;SDS011;34689;51.644;5.618;2023-04-07T01:50:48;4.18;;;2.38;;
48875;SDS011;34689;51.644;5.618;2023-04-07T01:53:15;5.85;;;2.42;;
48875;SDS011;34689;51.644;5.618;2023-04-07T01:55:41;4.20;;;2.78;;
48875;SDS011;34689;51.644;5.618;2023-04-07T01:58:08;3.15;;;1.92;;
48875;SDS011;34689;51.644;5.618;2023-04-07T02:00:34;5.03;;;1.98;;
48875;SDS011;34689;51.644;5.618;2023-04-07T02:03:22;6.68;;;2.55;;
48875;SDS011;34689;51.644;5.618;2023-04-07T02:05:54;5.13;;;2.85;;
48875;SDS011;34689;51.644;5.618;2023-04-07T02:08:25;3.80;;;2.30;;
48875;SDS011;34689;51.644;5.618;2023-04-07T02:10:52;3.10;;;2.08;;
48875;SDS011;34689;51.644;5.618;2023-04-07T02:13:21;5.28;;;2.72;;
48875;SDS011;34689;51.644;5.618;2023-04-07T02:15:48;7.85;;;2.88;;
48875;SDS011;34689;51.644;5.618;2023-04-07T02:18:18;3.22;;;2.20;;
48875;SDS011;34689;51.644;5.618;2023-04-07T02:20:46;6.13;;;2.53;;
48875;SDS011;34689;51.644;5.618;2023-04-07T02:23:12;3.13;;;2.08;;
48875;SDS011;34689;51.644;5.618;2023-04-07T02:25:38;3.45;;;1.88;;
48875;SDS011;34689;51.644;5.618;2023-04-07T02:28:04;6.00;;;2.63;;
48875;SDS011;34689;51.644;5.618;2023-04-07T02:30:31;3.95;;;2.25;;
48875;SDS011;34689;51.644;5.618;2023-04-07T02:32:57;5.80;;;2.58;;
48875;SDS011;34689;51.644;5.618;2023-04-07T02:35:23;3.75;;;2.67;;
48875;SDS011;34689;51.644;5.618;2023-04-07T02:37:48;4.20;;;2.10;;
48875;SDS011;34689;51.644;5.618;2023-04-07T02:40:15;4.60;;;2.17;;
48875;SDS011;34689;51.644;5.618;2023-04-07T02:42:40;5.60;;;2.08;;
48875;SDS011;34689;51.644;5.618;2023-04-07T02:45:10;2.83;;;1.90;;
48875;SDS011;34689;51.644;5.618;2023-04-07T02:47:36;3.28;;;1.83;;
48875;SDS011;34689;51.644;5.618;2023-04-07T02:50:03;4.10;;;2.17;;
48875;SDS011;34689;51.644;5.618;2023-04-07T02:52:29;3.60;;;1.90;;
48875;SDS011;34689;51.644;5.618;2023-04-07T02:54:55;4.40;;;2.75;;
48875;SDS011;34689;51.644;5.618;2023-04-07T02:57:20;2.38;;;1.77;;
48875;SDS011;34689;51.644;5.618;2023-04-07T02:59:46;5.68;;;2.13;;
48875;SDS011;34689;51.644;5.618;2023-04-07T03:02:12;4.63;;;1.70;;
48875;SDS011;34689;51.644;5.618;2023-04-07T03:04:37;3.38;;;1.65;;
48875;SDS011;34689;51.644;5.618;2023-04-07T03:07:03;3.67;;;1.85;;
48875;SDS011;34689;51.644;5.618;2023-04-07T03:09:29;2.78;;;1.98;;
48875;SDS011;34689;51.644;5.618;2023-04-07T03:11:55;3.67;;;2.00;;
48875;SDS011;34689;51.644;5.618;2023-04-07T03:14:21;3.25;;;1.75;;
48875;SDS011;34689;51.644;5.618;2023-04-07T03:16:46;4.93;;;2.28;;
48875;SDS011;34689;51.644;5.618;2023-04-07T03:19:12;3.28;;;1.45;;
48875;SDS011;34689;51.644;5.618;2023-04-07T03:21:40;4.18;;;2.25;;
48875;SDS011;34689;51.644;5.618;2023-04-07T03:24:06;5.07;;;2.20;;
48875;SDS011;34689;51.644;5.618;2023-04-07T03:26:32;3.65;;;2.58;;
48875;SDS011;34689;51.644;5.618;2023-04-07T03:28:58;4.75;;;2.10;;
48875;SDS011;34689;51.644;5.618;2023-04-07T03:31:23;4.47;;;2.33;;
48875;SDS011;34689;51.644;5.618;2023-04-07T03:33:49;4.80;;;2.58;;
48875;SDS011;34689;51.644;5.618;2023-04-07T03:36:15;2.95;;;1.85;;
48875;SDS011;34689;51.644;5.618;2023-04-07T03:38:45;3.92;;;2.38;;
48875;SDS011;34689;51.644;5.618;2023-04-07T03:41:11;8.13;;;3.53;;
48875;SDS011;34689;51.644;5.618;2023-04-07T03:43:37;4.00;;;2.55;;
48875;SDS011;34689;51.644;5.618;2023-04-07T03:46:03;3.75;;;1.85;;
48875;SDS011;34689;51.644;5.618;2023-04-07T03:48:31;4.88;;;2.65;;
48875;SDS011;34689;51.644;5.618;2023-04-07T03:50:59;3.63;;;2.15;;
48875;SDS011;34689;51.644;5.618;2023-04-07T03:53:27;3.95;;;2.25;;
48875;SDS011;34689;51.644;5.618;2023-04-07T03:55:53;3.67;;;2.25;;
48875;SDS011;34689;51.644;5.618;2023-04-07T03:58:19;3.10;;;1.80;;
48875;SDS011;34689;51.644;5.618;2023-04-07T04:00:45;8.60;;;2.75;;
48875;SDS011;34689;51.644;5.618;2023-04-07T04:03:10;3.63;;;2.25;;
48875;SDS011;34689;51.644;5.618;2023-04-07T04:05:36;4.13;;;1.77;;
48875;SDS011;34689;51.644;5.618;2023-04-07T04:08:02;6.00;;;2.33;;
48875;SDS011;34689;51.644;5.618;2023-04-07T04:10:28;4.28;;;2.38;;
48875;SDS011;34689;51.644;5.618;2023-04-07T04:12:53;3.55;;;2.03;;
48875;SDS011;34689;51.644;5.618;2023-04-07T04:15:19;7.53;;;3.22;;
48875;SDS011;34689;51.644;5.618;2023-04-07T04:17:45;5.00;;;2.38;;
48875;SDS011;34689;51.644;5.618;2023-04-07T04:20:11;4.38;;;1.83;;
48875;SDS011;34689;51.644;5.618;2023-04-07T04:22:36;3.72;;;2.17;;
48875;SDS011;34689;51.644;5.618;2023-04-07T04:25:03;5.03;;;1.80;;
48875;SDS011;34689;51.644;5.618;2023-04-07T04:27:28;3.50;;;2.22;;
48875;SDS011;34689;51.644;5.618;2023-04-07T04:29:54;4.50;;;2.42;;
48875;SDS011;34689;51.644;5.618;2023-04-07T04:32:20;3.30;;;1.83;;
48875;SDS011;34689;51.644;5.618;2023-04-07T04:34:45;4.88;;;2.45;;
48875;SDS011;34689;51.644;5.618;2023-04-07T04:37:11;4.93;;;2.47;;
48875;SDS011;34689;51.644;5.618;2023-04-07T04:39:37;4.65;;;2.10;;
48875;SDS011;34689;51.644;5.618;2023-04-07T04:42:03;5.05;;;2.38;;
48875;SDS011;34689;51.644;5.618;2023-04-07T04:44:29;4.15;;;2.05;;
48875;SDS011;34689;51.644;5.618;2023-04-07T04:46:55;4.03;;;2.25;;
48875;SDS011;34689;51.644;5.618;2023-04-07T04:49:21;5.85;;;2.47;;
48875;SDS011;34689;51.644;5.618;2023-04-07T04:51:49;5.35;;;2.30;;
48875;SDS011;34689;51.644;5.618;2023-04-07T04:54:16;5.05;;;2.28;;
48875;SDS011;34689;51.644;5.618;2023-04-07T04:56:42;5.40;;;1.80;;
48875;SDS011;34689;51.644;5.618;2023-04-07T04:59:08;2.63;;;1.95;;
48875;SDS011;34689;51.644;5.618;2023-04-07T05:01:34;6.75;;;2.05;;
48875;SDS011;34689;51.644;5.618;2023-04-07T05:04:00;7.30;;;2.33;;
48875;SDS011;34689;51.644;5.618;2023-04-07T05:06:27;3.58;;;2.00;;
48875;SDS011;34689;51.644;5.618;2023-04-07T05:08:53;4.72;;;2.13;;
48875;SDS011;34689;51.644;5.618;2023-04-07T05:11:19;4.63;;;2.22;;
48875;SDS011;34689;51.644;5.618;2023-04-07T05:13:47;4.80;;;2.35;;
48875;SDS011;34689;51.644;5.618;2023-04-07T05:16:13;5.57;;;2.78;;
48875;SDS011;34689;51.644;5.618;2023-04-07T05:18:39;6.57;;;2.92;;
48875;SDS011;34689;51.644;5.618;2023-04-07T05:21:05;4.45;;;2.70;;
48875;SDS011;34689;51.644;5.618;2023-04-07T05:23:31;6.72;;;2.13;;
48875;SDS011;34689;51.644;5.618;2023-04-07T05:25:57;4.45;;;2.30;;
48875;SDS011;34689;51.644;5.618;2023-04-07T05:28:22;6.57;;;2.60;;
48875;SDS011;34689;51.644;5.618;2023-04-07T05:30:49;4.90;;;2.33;;
48875;SDS011;34689;51.644;5.618;2023-04-07T05:33:17;7.22;;;2.35;;
48875;SDS011;34689;51.644;5.618;2023-04-07T05:35:43;5.43;;;2.08;;
48875;SDS011;34689;51.644;5.618;2023-04-07T05:38:10;7.45;;;2.33;;
48875;SDS011;34689;51.644;5.618;2023-04-07T05:40:36;6.90;;;2.38;;
48875;SDS011;34689;51.644;5.618;2023-04-07T05:43:03;4.63;;;2.25;;
48875;SDS011;34689;51.644;5.618;2023-04-07T05:45:29;4.32;;;2.47;;
48875;SDS011;34689;51.644;5.618;2023-04-07T05:47:55;3.67;;;2.28;;
48875;SDS011;34689;51.644;5.618;2023-04-07T05:50:20;5.03;;;2.45;;
48875;SDS011;34689;51.644;5.618;2023-04-07T05:52:46;6.38;;;3.30;;
48875;SDS011;34689;51.644;5.618;2023-04-07T05:55:12;4.15;;;1.63;;
48875;SDS011;34689;51.644;5.618;2023-04-07T05:57:38;4.57;;;2.20;;
48875;SDS011;34689;51.644;5.618;2023-04-07T06:00:04;8.95;;;3.55;;
48875;SDS011;34689;51.644;5.618;2023-04-07T06:02:30;5.07;;;2.78;;
48875;SDS011;34689;51.644;5.618;2023-04-07T06:04:58;6.13;;;2.75;;
48875;SDS011;34689;51.644;5.618;2023-04-07T06:07:27;7.85;;;3.20;;
48875;SDS011;34689;51.644;5.618;2023-04-07T06:09:52;5.70;;;2.90;;
48875;SDS011;34689;51.644;5.618;2023-04-07T06:12:18;4.75;;;2.42;;
48875;SDS011;34689;51.644;5.618;2023-04-07T06:14:45;4.38;;;2.38;;
48875;SDS011;34689;51.644;5.618;2023-04-07T06:17:16;10.75;;;2.90;;
48875;SDS011;34689;51.644;5.618;2023-04-07T06:19:42;7.68;;;3.22;;
48875;SDS011;34689;51.644;5.618;2023-04-07T06:22:08;7.07;;;3.30;;
48875;SDS011;34689;51.644;5.618;2023-04-07T06:24:34;6.25;;;3.33;;
48875;SDS011;34689;51.644;5.618;2023-04-07T06:27:00;7.88;;;3.13;;
48875;SDS011;34689;51.644;5.618;2023-04-07T06:29:26;6.10;;;3.35;;
48875;SDS011;34689;51.644;5.618;2023-04-07T06:31:52;8.77;;;2.63;;
48875;SDS011;34689;51.644;5.618;2023-04-07T06:34:18;4.25;;;2.35;;
48875;SDS011;34689;51.644;5.618;2023-04-07T06:36:44;4.13;;;2.65;;
48875;SDS011;34689;51.644;5.618;2023-04-07T06:39:12;2.70;;;1.50;;
48875;SDS011;34689;51.644;5.618;2023-04-07T06:41:37;3.20;;;2.33;;
48875;SDS011;34689;51.644;5.618;2023-04-07T06:44:07;6.57;;;2.17;;
48875;SDS011;34689;51.644;5.618;2023-04-07T06:46:35;2.80;;;1.98;;
48875;SDS011;34689;51.644;5.618;2023-04-07T06:49:01;4.88;;;1.98;;
48875;SDS011;34689;51.644;5.618;2023-04-07T06:51:27;2.80;;;1.70;;
48875;SDS011;34689;51.644;5.618;2023-04-07T06:53:53;3.20;;;2.20;;
48875;SDS011;34689;51.644;5.618;2023-04-07T06:56:19;2.35;;;1.55;;
48875;SDS011;34689;51.644;5.618;2023-04-07T06:58:45;10.55;;;2.72;;
48875;SDS011;34689;51.644;5.618;2023-04-07T07:01:11;3.25;;;2.22;;
48875;SDS011;34689;51.644;5.618;2023-04-07T07:03:39;8.93;;;3.15;;
48875;SDS011;34689;51.644;5.618;2023-04-07T07:06:05;4.00;;;2.05;;
48875;SDS011;34689;51.644;5.618;2023-04-07T07:08:31;4.22;;;2.30;;
48875;SDS011;34689;51.644;5.618;2023-04-07T07:10:56;6.57;;;1.90;;
48875;SDS011;34689;51.644;5.618;2023-04-07T07:13:23;4.15;;;2.40;;
48875;SDS011;34689;51.644;5.618;2023-04-07T07:15:52;4.72;;;2.58;;
48875;SDS011;34689;51.644;5.618;2023-04-07T07:18:19;4.20;;;2.50;;
48875;SDS011;34689;51.644;5.618;2023-04-07T07:20:44;5.72;;;2.58;;
48875;SDS011;34689;51.644;5.618;2023-04-07T07:23:10;3.58;;;2.13;;
48875;SDS011;34689;51.644;5.618;2023-04-07T07:25:36;2.40;;;1.50;;
48875;SDS011;34689;51.644;5.618;2023-04-07T07:28:02;2.72;;;1.50;;
48875;SDS011;34689;51.644;5.618;2023-04-07T07:30:28;2.88;;;1.80;;
48875;SDS011;34689;51.644;5.618;2023-04-07T07:32:53;2.35;;;1.65;;
48875;SDS011;34689;51.644;5.618;2023-04-07T07:35:21;2.78;;;1.52;;
48875;SDS011;34689;51.644;5.618;2023-04-07T07:37:50;4.15;;;1.88;;
48875;SDS011;34689;51.644;5.618;2023-04-07T07:40:18;3.22;;;1.52;;
48875;SDS011;34689;51.644;5.618;2023-04-07T07:42:45;4.07;;;1.67;;
48875;SDS011;34689;51.644;5.618;2023-04-07T07:45:11;2.42;;;1.55;;
48875;SDS011;34689;51.644;5.618;2023-04-07T07:47:37;2.13;;;1.63;;
48875;SDS011;34689;51.644;5.618;2023-04-07T07:50:03;2.08;;;1.58;;
48875;SDS011;34689;51.644;5.618;2023-04-07T07:52:29;1.90;;;1.50;;
48875;SDS011;34689;51.644;5.618;2023-04-07T07:54:55;3.58;;;1.40;;
48875;SDS011;34689;51.644;5.618;2023-04-07T07:57:21;6.70;;;2.45;;
48875;SDS011;34689;51.644;5.618;2023-04-07T07:59:46;3.33;;;1.63;;
48875;SDS011;34689;51.644;5.618;2023-04-07T08:02:12;2.45;;;1.83;;
48875;SDS011;34689;51.644;5.618;2023-04-07T08:04:38;1.83;;;1.20;;
48875;SDS011;34689;51.644;5.618;2023-04-07T08:07:05;1.05;;;0.85;;
48875;SDS011;34689;51.644;5.618;2023-04-07T08:09:31;3.55;;;2.03;;
48875;SDS011;34689;51.644;5.618;2023-04-07T08:11:57;2.15;;;1.35;;
48875;SDS011;34689;51.644;5.618;2023-04-07T08:14:23;4.25;;;1.25;;
48875;SDS011;34689;51.644;5.618;2023-04-07T08:16:48;2.15;;;1.70;;
48875;SDS011;34689;51.644;5.618;2023-04-07T08:19:14;2.28;;;1.70;;
48875;SDS011;34689;51.644;5.618;2023-04-07T08:21:43;3.00;;;1.83;;
48875;SDS011;34689;51.644;5.618;2023-04-07T08:24:09;3.33;;;1.70;;
48875;SDS011;34689;51.644;5.618;2023-04-07T08:26:35;4.65;;;2.30;;
48875;SDS011;34689;51.644;5.618;2023-04-07T08:29:01;4.15;;;1.98;;
48875;SDS011;34689;51.644;5.618;2023-04-07T08:31:27;4.47;;;2.00;;
48875;SDS011;34689;51.644;5.618;2023-04-07T08:33:52;2.72;;;1.95;;
48875;SDS011;34689;51.644;5.618;2023-04-07T08:36:22;4.15;;;2.20;;
48875;SDS011;34689;51.644;5.618;2023-04-07T08:38:48;5.28;;;2.08;;
48875;SDS011;34689;51.644;5.618;2023-04-07T08:41:23;2.85;;;1.83;;
48875;SDS011;34689;51.644;5.618;2023-04-07T08:43:55;2.65;;;1.83;;
48875;SDS011;34689;51.644;5.618;2023-04-07T08:46:22;2.10;;;1.65;;
48875;SDS011;34689;51.644;5.618;2023-04-07T08:48:50;2.83;;;1.77;;
48875;SDS011;34689;51.644;5.618;2023-04-07T08:51:17;2.55;;;1.40;;
48875;SDS011;34689;51.644;5.618;2023-04-07T08:54:05;1.77;;;1.27;;
48875;SDS011;34689;51.644;5.618;2023-04-07T08:56:38;2.13;;;1.02;;
48875;SDS011;34689;51.644;5.618;2023-04-07T08:59:06;2.13;;;1.40;;
48875;SDS011;34689;51.644;5.618;2023-04-07T09:01:36;2.85;;;2.13;;
48875;SDS011;34689;51.644;5.618;2023-04-07T09:04:03;2.95;;;1.73;;
48875;SDS011;34689;51.644;5.618;2023-04-07T09:06:30;3.53;;;2.22;;
48875;SDS011;34689;51.644;5.618;2023-04-07T09:09:05;5.22;;;2.00;;
48875;SDS011;34689;51.644;5.618;2023-04-07T09:11:33;2.13;;;1.75;;
48875;SDS011;34689;51.644;5.618;2023-04-07T09:14:00;5.40;;;1.67;;
48875;SDS011;34689;51.644;5.618;2023-04-07T09:16:27;4.13;;;2.53;;
48875;SDS011;34689;51.644;5.618;2023-04-07T09:18:55;2.33;;;1.58;;
48875;SDS011;34689;51.644;5.618;2023-04-07T09:21:21;3.78;;;2.45;;
48875;SDS011;34689;51.644;5.618;2023-04-07T09:23:48;2.63;;;1.55;;
48875;SDS011;34689;51.644;5.618;2023-04-07T09:26:20;2.60;;;1.77;;
48875;SDS011;34689;51.644;5.618;2023-04-07T09:28:55;3.60;;;2.30;;
48875;SDS011;34689;51.644;5.618;2023-04-07T09:31:43;3.83;;;2.25;;
48875;SDS011;34689;51.644;5.618;2023-04-07T09:34:22;3.47;;;1.38;;
48875;SDS011;34689;51.644;5.618;2023-04-07T09:36:48;2.75;;;1.90;;
48875;SDS011;34689;51.644;5.618;2023-04-07T09:39:14;2.60;;;1.50;;
48875;SDS011;34689;51.644;5.618;2023-04-07T09:41:39;2.92;;;1.55;;
48875;SDS011;34689;51.644;5.618;2023-04-07T09:44:05;1.70;;;1.15;;
48875;SDS011;34689;51.644;5.618;2023-04-07T09:46:31;5.35;;;2.10;;
48875;SDS011;34689;51.644;5.618;2023-04-07T09:49:01;1.88;;;1.38;;
48875;SDS011;34689;51.644;5.618;2023-04-07T09:51:31;5.20;;;2.30;;
48875;SDS011;34689;51.644;5.618;2023-04-07T09:53:58;3.97;;;2.42;;
48875;SDS011;34689;51.644;5.618;2023-04-07T09:56:23;4.03;;;2.33;;
48875;SDS011;34689;51.644;5.618;2023-04-07T09:58:52;3.83;;;2.33;;
48875;SDS011;34689;51.644;5.618;2023-04-07T10:01:18;2.65;;;1.77;;
48875;SDS011;34689;51.644;5.618;2023-04-07T10:03:45;2.38;;;1.45;;
48875;SDS011;34689;51.644;5.618;2023-04-07T10:06:12;1.60;;;1.42;;
48875;SDS011;34689;51.644;5.618;2023-04-07T10:08:39;2.80;;;1.88;;
48875;SDS011;34689;51.644;5.618;2023-04-07T10:11:06;2.45;;;1.10;;
48875;SDS011;34689;51.644;5.618;2023-04-07T10:13:34;3.25;;;1.02;;
48875;SDS011;34689;51.644;5.618;2023-04-07T10:16:04;1.73;;;1.33;;
48875;SDS011;34689;51.644;5.618;2023-04-07T10:18:32;3.92;;;1.33;;
48875;SDS011;34689;51.644;5.618;2023-04-07T10:21:00;7.25;;;1.45;;
48875;SDS011;34689;51.644;5.618;2023-04-07T10:25:58;1.90;;;1.17;;
48875;SDS011;34689;51.644;5.618;2023-04-07T10:28:26;1.20;;;0.90;;
48875;SDS011;34689;51.644;5.618;2023-04-07T10:30:54;4.13;;;1.13;;
48875;SDS011;34689;51.644;5.618;2023-04-07T10:36:10;2.17;;;1.23;;
48875;SDS011;34689;51.644;5.618;2023-04-07T10:38:36;2.45;;;1.00;;
48875;SDS011;34689;51.644;5.618;2023-04-07T10:43:57;2.63;;;1.00;;
48875;SDS011;34689;51.644;5.618;2023-04-07T10:46:23;1.20;;;0.60;;
48875;SDS011;34689;51.644;5.618;2023-04-07T10:49:07;2.47;;;1.00;;
48875;SDS011;34689;51.644;5.618;2023-04-07T10:51:34;3.28;;;1.25;;
48875;SDS011;34689;51.644;5.618;2023-04-07T10:59:31;1.75;;;1.33;;
48875;SDS011;34689;51.644;5.618;2023-04-07T11:04:43;2.72;;;0.98;;
48875;SDS011;34689;51.644;5.618;2023-04-07T11:07:10;2.45;;;1.35;;
48875;SDS011;34689;51.644;5.618;2023-04-07T11:09:36;1.65;;;1.33;;
48875;SDS011;34689;51.644;5.618;2023-04-07T11:12:02;2.33;;;1.20;;
48875;SDS011;34689;51.644;5.618;2023-04-07T11:14:29;2.15;;;1.40;;
48875;SDS011;34689;51.644;5.618;2023-04-07T11:16:57;8.77;;;3.05;;
48875;SDS011;34689;51.644;5.618;2023-04-07T11:19:23;2.13;;;1.30;;
48875;SDS011;34689;51.644;5.618;2023-04-07T11:21:49;2.53;;;1.70;;
48875;SDS011;34689;51.644;5.618;2023-04-07T11:27:11;2.85;;;1.40;;
48875;SDS011;34689;51.644;5.618;2023-04-07T11:29:37;1.90;;;1.20;;
48875;SDS011;34689;51.644;5.618;2023-04-07T11:32:03;1.65;;;1.13;;
48875;SDS011;34689;51.644;5.618;2023-04-07T11:34:33;1.55;;;0.90;;
48875;SDS011;34689;51.644;5.618;2023-04-07T11:39:55;3.45;;;1.38;;
48875;SDS011;34689;51.644;5.618;2023-04-07T11:42:34;5.03;;;1.30;;
48875;SDS011;34689;51.644;5.618;2023-04-07T11:45:01;7.07;;;1.38;;
48875;SDS011;34689;51.644;5.618;2023-04-07T11:47:38;2.13;;;1.35;;
48875;SDS011;34689;51.644;5.618;2023-04-07T11:50:06;4.05;;;1.75;;
48875;SDS011;34689;51.644;5.618;2023-04-07T11:52:42;5.18;;;1.75;;
48875;SDS011;34689;51.644;5.618;2023-04-07T11:55:16;2.97;;;1.30;;
48875;SDS011;34689;51.644;5.618;2023-04-07T11:57:46;5.03;;;1.65;;
48875;SDS011;34689;51.644;5.618;2023-04-07T12:00:12;5.43;;;1.58;;
48875;SDS011;34689;51.644;5.618;2023-04-07T12:02:39;4.22;;;2.15;;
48875;SDS011;34689;51.644;5.618;2023-04-07T12:05:06;6.72;;;2.58;;
48875;SDS011;34689;51.644;5.618;2023-04-07T12:07:34;4.13;;;1.95;;
48875;SDS011;34689;51.644;5.618;2023-04-07T12:12:46;4.38;;;2.17;;
48875;SDS011;34689;51.644;5.618;2023-04-07T12:15:15;5.22;;;1.63;;
48875;SDS011;34689;51.644;5.618;2023-04-07T12:17:45;2.58;;;1.38;;
48875;SDS011;34689;51.644;5.618;2023-04-07T12:20:14;2.97;;;1.08;;
48875;SDS011;34689;51.644;5.618;2023-04-07T12:22:40;1.75;;;1.40;;
48875;SDS011;34689;51.644;5.618;2023-04-07T12:25:06;5.85;;;1.45;;
48875;SDS011;34689;51.644;5.618;2023-04-07T12:27:32;2.08;;;1.10;;
48875;SDS011;34689;51.644;5.618;2023-04-07T12:29:58;2.45;;;1.35;;
48875;SDS011;34689;51.644;5.618;2023-04-07T12:32:24;2.60;;;1.52;;
48875;SDS011;34689;51.644;5.618;2023-04-07T12:34:49;5.25;;;1.83;;
48875;SDS011;34689;51.644;5.618;2023-04-07T12:37:15;1.65;;;0.98;;
48875;SDS011;34689;51.644;5.618;2023-04-07T12:39:41;2.35;;;1.27;;
48875;SDS011;34689;51.644;5.618;2023-04-07T12:42:07;2.15;;;1.00;;
48875;SDS011;34689;51.644;5.618;2023-04-07T12:44:35;2.90;;;0.75;;
48875;SDS011;34689;51.644;5.618;2023-04-07T12:47:04;1.25;;;0.90;;
48875;SDS011;34689;51.644;5.618;2023-04-07T12:49:29;1.90;;;1.17;;
48875;SDS011;34689;51.644;5.618;2023-04-07T12:51:55;2.47;;;1.05;;
48875;SDS011;34689;51.644;5.618;2023-04-07T12:54:21;2.55;;;1.25;;
48875;SDS011;34689;51.644;5.618;2023-04-07T12:56:47;2.65;;;1.42;;
48875;SDS011;34689;51.644;5.618;2023-04-07T12:59:13;3.38;;;1.35;;
48875;SDS011;34689;51.644;5.618;2023-04-07T13:01:39;1.75;;;1.10;;
48875;SDS011;34689;51.644;5.618;2023-04-07T13:04:05;6.15;;;1.30;;
48875;SDS011;34689;51.644;5.618;2023-04-07T13:06:31;2.22;;;1.27;;
48875;SDS011;34689;51.644;5.618;2023-04-07T13:09:00;3.20;;;1.40;;
48875;SDS011;34689;51.644;5.618;2023-04-07T13:11:26;3.17;;;1.40;;
48875;SDS011;34689;51.644;5.618;2023-04-07T13:13:52;4.47;;;1.50;;
48875;SDS011;34689;51.644;5.618;2023-04-07T13:16:17;3.60;;;1.52;;
48875;SDS011;34689;51.644;5.618;2023-04-07T13:18:43;4.55;;;1.45;;
48875;SDS011;34689;51.644;5.618;2023-04-07T13:21:12;2.10;;;1.40;;
48875;SDS011;34689;51.644;5.618;2023-04-07T13:23:37;2.90;;;1.70;;
48875;SDS011;34689;51.644;5.618;2023-04-07T13:26:03;2.90;;;1.75;;
48875;SDS011;34689;51.644;5.618;2023-04-07T13:28:31;2.78;;;1.27;;
48875;SDS011;34689;51.644;5.618;2023-04-07T13:30:57;3.15;;;2.22;;
48875;SDS011;34689;51.644;5.618;2023-04-07T13:33:23;2.67;;;1.40;;
48875;SDS011;34689;51.644;5.618;2023-04-07T13:35:49;3.42;;;1.33;;
48875;SDS011;34689;51.644;5.618;2023-04-07T13:38:15;3.53;;;1.63;;
48875;SDS011;34689;51.644;5.618;2023-04-07T13:40:43;5.13;;;1.45;;
48875;SDS011;34689;51.644;5.618;2023-04-07T13:43:09;2.38;;;1.52;;
48875;SDS011;34689;51.644;5.618;2023-04-07T13:45:36;2.17;;;1.30;;
48875;SDS011;34689;51.644;5.618;2023-04-07T13:48:02;2.83;;;1.33;;
48875;SDS011;34689;51.644;5.618;2023-04-07T13:50:28;1.67;;;1.15;;
48875;SDS011;34689;51.644;5.618;2023-04-07T13:52:53;2.95;;;1.05;;
48875;SDS011;34689;51.644;5.618;2023-04-07T13:55:22;1.40;;;1.00;;
48875;SDS011;34689;51.644;5.618;2023-04-07T13:57:47;4.15;;;1.63;;
48875;SDS011;34689;51.644;5.618;2023-04-07T14:00:16;1.45;;;0.90;;
48875;SDS011;34689;51.644;5.618;2023-04-07T14:02:42;2.92;;;1.50;;
48875;SDS011;34689;51.644;5.618;2023-04-07T14:05:09;1.25;;;0.90;;
48875;SDS011;34689;51.644;5.618;2023-04-07T14:07:35;3.38;;;1.50;;
48875;SDS011;34689;51.644;5.618;2023-04-07T14:10:01;2.35;;;1.60;;
48875;SDS011;34689;51.644;5.618;2023-04-07T14:12:27;3.15;;;1.27;;
48875;SDS011;34689;51.644;5.618;2023-04-07T14:14:52;2.95;;;1.30;;
48875;SDS011;34689;51.644;5.618;2023-04-07T14:17:19;1.13;;;1.00;;
48875;SDS011;34689;51.644;5.618;2023-04-07T14:19:45;1.58;;;1.30;;
48875;SDS011;34689;51.644;5.618;2023-04-07T14:22:13;2.05;;;1.42;;
48875;SDS011;34689;51.644;5.618;2023-04-07T14:24:39;1.10;;;0.80;;
48875;SDS011;34689;51.644;5.618;2023-04-07T14:27:05;2.95;;;1.05;;
48875;SDS011;34689;51.644;5.618;2023-04-07T14:29:33;3.50;;;1.05;;
48875;SDS011;34689;51.644;5.618;2023-04-07T14:31:59;4.40;;;1.27;;
48875;SDS011;34689;51.644;5.618;2023-04-07T14:34:25;2.50;;;1.88;;
48875;SDS011;34689;51.644;5.618;2023-04-07T14:36:54;1.48;;;1.17;;
48875;SDS011;34689;51.644;5.618;2023-04-07T14:39:22;1.17;;;0.80;;
48875;SDS011;34689;51.644;5.618;2023-04-07T14:41:49;5.30;;;1.05;;
48875;SDS011;34689;51.644;5.618;2023-04-07T14:44:15;2.92;;;1.25;;
48875;SDS011;34689;51.644;5.618;2023-04-07T14:46:41;2.17;;;1.00;;
48875;SDS011;34689;51.644;5.618;2023-04-07T14:49:07;1.60;;;1.27;;
48875;SDS011;34689;51.644;5.618;2023-04-07T14:51:33;4.40;;;1.45;;
48875;SDS011;34689;51.644;5.618;2023-04-07T14:53:59;1.67;;;1.15;;
48875;SDS011;34689;51.644;5.618;2023-04-07T14:56:25;3.22;;;1.20;;
48875;SDS011;34689;51.644;5.618;2023-04-07T14:58:52;1.67;;;1.40;;
48875;SDS011;34689;51.644;5.618;2023-04-07T15:01:18;2.05;;;1.45;;
48875;SDS011;34689;51.644;5.618;2023-04-07T15:03:44;1.50;;;1.13;;
48875;SDS011;34689;51.644;5.618;2023-04-07T15:06:11;2.22;;;1.38;;
48875;SDS011;34689;51.644;5.618;2023-04-07T15:08:38;1.80;;;1.35;;
48875;SDS011;34689;51.644;5.618;2023-04-07T15:11:05;2.67;;;0.93;;
48875;SDS011;34689;51.644;5.618;2023-04-07T15:13:31;1.92;;;1.08;;
48875;SDS011;34689;51.644;5.618;2023-04-07T15:16:04;3.67;;;1.40;;
48875;SDS011;34689;51.644;5.618;2023-04-07T15:18:34;7.22;;;1.65;;
48875;SDS011;34689;51.644;5.618;2023-04-07T15:21:00;5.55;;;2.15;;
48875;SDS011;34689;51.644;5.618;2023-04-07T15:23:25;3.25;;;1.88;;
48875;SDS011;34689;51.644;5.618;2023-04-07T15:25:51;2.85;;;2.22;;